Time;durP1;ratioP1;P1;durP2;ratioP2;P2;SDS_P1;SDS_P2;PMS_P1;PMS_P2;Temp;Humidity;BMP_temperature;BMP_pressure;BME280_temperature;BME280_humidity;BME280_pressure;Samples;Min_cycle;Max_cycle;Signal;HPM_P1;HPM_P2
2022/06/25 00:00:52;;;;;;;;;3.00;1.25;;;;;23.51;47.82;100839.31;2402747;28;45389;-91
2022/06/25 00:02:03;;;;;;;;;3.00;2.00;;;;;23.50;48.16;100840.31;2390780;28;48011;-93
2022/06/25 00:03:13;;;;;;;;;2.00;2.00;;;;;23.47;47.86;100837.84;2383761;28;45316;-93
2022/06/25 00:05:53;;;;;;;;;2.00;2.00;;;;;23.46;48.39;100839.69;2379731;28;45199;-95
2022/06/25 00:07:03;;;;;;;;;1.50;1.50;;;;;23.45;47.83;100829.09;2375904;28;47299;-85
2022/06/25 00:08:14;;;;;;;;;2.00;1.75;;;;;23.47;48.13;100836.03;2377825;28;45268;-86
2022/06/25 00:09:24;;;;;;;;;1.75;1.75;;;;;23.46;47.93;100828.97;2393004;28;46215;-85
2022/06/25 00:10:34;;;;;;;;;1.75;1.75;;;;;23.48;47.95;100836.88;2390602;28;44748;-86
2022/06/25 00:13:14;;;;;;;;;2.00;2.00;;;;;23.51;48.33;100823.22;2384524;28;45255;-85
2022/06/25 00:14:24;;;;;;;;;3.00;1.00;;;;;23.52;48.27;100827.59;2384295;28;46397;-86
2022/06/25 00:15:34;;;;;;;;;1.00;1.00;;;;;23.53;48.06;100829.31;2383151;28;45270;-84
2022/06/25 00:16:45;;;;;;;;;3.75;2.00;;;;;23.52;47.86;100832.13;2384302;28;45180;-85
2022/06/25 00:17:55;;;;;;;;;1.75;1.75;;;;;23.54;48.16;100827.47;2378863;28;45195;-85
2022/06/25 00:19:06;;;;;;;;;2.00;2.00;;;;;23.53;47.99;100829.31;2376668;28;45212;-85
2022/06/25 00:20:16;;;;;;;;;4.00;3.00;;;;;23.55;48.27;100831.84;2384528;28;44641;-85
2022/06/25 00:21:27;;;;;;;;;3.00;2.00;;;;;23.54;48.27;100825.63;2383059;28;47035;-84
2022/06/25 00:22:37;;;;;;;;;1.25;1.00;;;;;23.55;47.73;100821.97;2383685;28;45203;-83
2022/06/25 00:23:47;;;;;;;;;1.00;1.00;;;;;23.52;47.68;100822.25;2384237;28;45378;-83
2022/06/25 00:24:58;;;;;;;;;1.25;1.25;;;;;23.52;47.84;100824.94;2384351;28;45232;-83
2022/06/25 00:26:08;;;;;;;;;2.00;2.00;;;;;23.50;47.80;100818.84;2383415;28;45263;-83
2022/06/25 00:27:18;;;;;;;;;2.00;1.75;;;;;23.47;48.32;100824.44;2384585;28;45229;-83
2022/06/25 00:28:29;;;;;;;;;4.00;2.00;;;;;23.41;48.26;100825.81;2384144;28;45392;-82
2022/06/25 00:29:39;;;;;;;;;1.00;1.00;;;;;23.37;48.60;100825.25;2384437;28;45215;-83
2022/06/25 00:30:49;;;;;;;;;2.00;2.00;;;;;23.37;48.20;100822.56;2384227;28;46264;-82
2022/06/25 00:32:00;;;;;;;;;2.00;2.00;;;;;23.38;48.50;100828.78;2383759;28;44652;-85
2022/06/25 00:33:10;;;;;;;;;4.00;2.00;;;;;23.37;48.58;100819.88;2384709;28;45448;-85
2022/06/25 00:34:20;;;;;;;;;4.00;2.00;;;;;23.39;48.49;100827.78;2384442;28;45198;-84
2022/06/25 00:35:31;;;;;;;;;2.50;2.00;;;;;23.38;48.88;100824.25;2384195;28;45494;-85
2022/06/25 00:36:41;;;;;;;;;2.00;2.00;;;;;23.36;48.48;100834.28;2384336;28;44718;-85
2022/06/25 00:37:52;;;;;;;;;5.25;2.00;;;;;23.36;48.86;100820.84;2384308;28;45381;-85
2022/06/25 00:39:03;;;;;;;;;2.75;2.75;;;;;23.35;48.72;100835.28;2384340;28;45437;-87
2022/06/25 00:40:14;;;;;;;;;1.50;1.50;;;;;23.36;49.31;100834.28;2384099;28;45322;-87
2022/06/25 00:41:25;;;;;;;;;6.00;2.50;;;;;23.34;49.22;100835.38;2383464;28;45335;-87
2022/06/25 00:42:35;;;;;;;;;2.00;2.00;;;;;23.33;49.01;100831.88;2385302;28;48139;-84
2022/06/25 00:43:45;;;;;;;;;2.00;2.00;;;;;23.33;49.00;100823.84;2390521;28;45329;-85
2022/06/25 00:44:56;;;;;;;;;1.25;1.25;;;;;23.36;49.19;100834.28;2384071;28;46339;-85
2022/06/25 00:46:06;;;;;;;;;2.00;2.00;;;;;23.37;49.20;100827.06;2384409;28;45204;-84
2022/06/25 00:47:17;;;;;;;;;2.25;2.00;;;;;23.36;49.33;100828.91;2383706;28;45421;-84
2022/06/25 00:48:27;;;;;;;;;3.00;2.00;;;;;23.36;49.72;100828.09;2383716;28;45221;-85
2022/06/25 00:49:38;;;;;;;;;3.25;1.50;;;;;23.35;48.84;100829.06;2384161;28;46403;-84
2022/06/25 00:50:49;;;;;;;;;2.75;2.00;;;;;23.34;48.63;100836.25;2392962;28;45272;-84
2022/06/25 00:52:02;;;;;;;;;2.00;2.00;;;;;23.34;49.72;100838.91;2382954;28;47248;-84
2022/06/25 00:53:14;;;;;;;;;3.50;3.00;;;;;23.35;49.43;100842.47;2385615;28;45183;-87
2022/06/25 00:54:26;;;;;;;;;2.75;2.00;;;;;23.32;49.30;100837.34;2389954;28;46515;-87
2022/06/25 00:55:38;;;;;;;;;1.75;1.75;;;;;23.28;49.05;100839.47;2384074;28;44637;-87
2022/06/25 00:56:51;;;;;;;;;2.50;2.00;;;;;23.27;49.27;100840.44;2384053;28;45345;-89
2022/06/25 00:58:01;;;;;;;;;2.50;1.50;;;;;23.25;49.76;100831.69;2392857;28;45267;-88
2022/06/25 00:59:12;;;;;;;;;4.00;2.75;;;;;23.23;49.32;100829.13;2383212;28;47048;-88
2022/06/25 01:00:23;;;;;;;;;2.00;2.00;;;;;23.21;49.62;100831.06;2383764;28;45436;-88
2022/06/25 01:01:35;;;;;;;;;3.00;3.00;;;;;23.22;49.87;100837.28;2383814;28;46246;-87
2022/06/25 01:02:46;;;;;;;;;2.75;2.00;;;;;23.22;49.48;100838.16;2380324;28;44758;-86
2022/06/25 01:03:56;;;;;;;;;2.00;2.00;;;;;23.22;49.43;100834.63;2392698;28;46620;-86
2022/06/25 01:05:09;;;;;;;;;3.00;3.00;;;;;23.20;49.32;100832.06;2390524;28;45340;-92
2022/06/25 01:06:19;;;;;;;;;2.00;2.00;;;;;23.15;49.02;100829.78;2384056;28;45423;-89
2022/06/25 01:07:29;;;;;;;;;2.00;2.00;;;;;23.15;49.20;100843.19;2384108;28;45309;-88
2022/06/25 01:08:40;;;;;;;;;3.25;2.50;;;;;23.15;49.89;100831.63;2392676;28;46979;-89
2022/06/25 01:09:51;;;;;;;;;2.25;2.25;;;;;23.14;49.57;100832.59;2390195;28;45423;-89
2022/06/25 01:11:02;;;;;;;;;2.50;2.00;;;;;23.14;49.34;100835.25;2383392;28;45492;-89
2022/06/25 01:12:13;;;;;;;;;1.25;1.25;;;;;23.13;49.67;100836.25;2391306;28;45347;-89
2022/06/25 01:13:23;;;;;;;;;3.25;2.00;;;;;23.14;49.51;100835.25;2383196;28;48003;-90
2022/06/25 01:14:34;;;;;;;;;4.00;2.50;;;;;23.14;49.53;100824.53;2383643;28;44672;-89
2022/06/25 01:15:46;;;;;;;;;2.00;2.00;;;;;23.14;49.90;100821.88;2392116;28;47590;-87
2022/06/25 01:16:56;;;;;;;;;2.25;2.00;;;;;23.14;49.46;100830.75;2390086;28;45274;-85
2022/06/25 01:18:07;;;;;;;;;2.00;2.00;;;;;23.11;49.50;100830.19;2383414;28;46166;-87
2022/06/25 01:19:18;;;;;;;;;3.00;2.00;;;;;23.09;49.49;100824.94;2392600;28;45247;-86
2022/06/25 01:20:28;;;;;;;;;3.25;2.50;;;;;23.09;50.09;100830.31;2390182;28;45530;-85
2022/06/25 01:21:41;;;;;;;;;1.00;1.00;;;;;23.11;49.64;100822.16;2383873;28;45209;-85
2022/06/25 01:22:53;;;;;;;;;1.75;1.25;;;;;23.13;49.39;100833.59;2382407;28;47098;-85
2022/06/25 01:24:05;;;;;;;;;2.00;2.00;;;;;23.16;49.65;100834.16;2381850;28;45420;-84
2022/06/25 01:25:16;;;;;;;;;3.00;1.50;;;;;23.18;49.79;100838.53;2391865;28;47795;-85
2022/06/25 01:26:26;;;;;;;;;2.00;2.00;;;;;23.18;49.87;100830.50;2390297;28;44582;-85
2022/06/25 01:27:37;;;;;;;;;3.75;3.75;;;;;23.18;49.65;100835.88;2383844;28;45227;-85
2022/06/25 01:28:47;;;;;;;;;4.00;3.00;;;;;23.18;49.91;100842.09;2383518;28;45244;-85
2022/06/25 01:29:58;;;;;;;;;3.75;1.75;;;;;23.17;49.26;100835.00;2383969;28;46214;-88
2022/06/25 01:31:08;;;;;;;;;2.75;2.00;;;;;23.19;49.24;100835.72;2384188;28;45151;-87
2022/06/25 01:32:19;;;;;;;;;6.25;4.00;;;;;23.21;49.73;100839.13;2382183;28;46509;-87
2022/06/25 01:33:29;;;;;;;;;2.25;2.00;;;;;23.23;49.84;100841.69;2397935;28;45289;-87
2022/06/25 01:34:39;;;;;;;;;1.00;1.00;;;;;23.25;49.81;100837.03;2384746;28;47003;-87
2022/06/25 01:35:50;;;;;;;;;2.00;2.00;;;;;23.25;49.38;100839.72;2381000;28;45339;-87
2022/06/25 01:37:00;;;;;;;;;3.00;2.00;;;;;23.23;49.36;100834.50;2383421;28;47896;-87
2022/06/25 01:38:10;;;;;;;;;4.50;3.25;;;;;23.26;50.14;100844.13;2390030;28;45436;-87
2022/06/25 01:39:21;;;;;;;;;2.50;2.50;;;;;23.24;49.82;100833.50;2383054;28;46934;-87
2022/06/25 01:40:33;;;;;;;;;2.00;2.00;;;;;23.25;49.82;100837.03;2376472;28;45356;-86
2022/06/25 01:41:43;;;;;;;;;2.00;2.00;;;;;23.26;49.94;100836.91;2383393;28;46303;-86
2022/06/25 01:43:00;;;;;;;;;4.00;1.75;;;;;23.29;49.78;100834.94;2383100;28;45294;-91
2022/06/25 01:44:11;;;;;;;;;2.00;2.00;;;;;23.29;49.88;100834.94;2384154;28;45321;-92
2022/06/25 01:45:22;;;;;;;;;2.50;2.50;;;;;23.30;49.47;100828.59;2381464;28;44846;-90
2022/06/25 01:46:32;;;;;;;;;3.25;1.00;;;;;23.28;49.69;100831.41;2373923;28;47097;-91
2022/06/25 01:47:43;;;;;;;;;1.75;1.75;;;;;23.25;49.73;100834.34;2380003;28;45440;-91
2022/06/25 01:48:53;;;;;;;;;3.00;3.00;;;;;23.25;49.76;100837.03;2376801;28;46432;-91
2022/06/25 01:50:06;;;;;;;;;4.00;2.00;;;;;23.24;49.86;100829.97;2386627;28;45327;-91
2022/06/25 01:51:17;;;;;;;;;2.50;2.00;;;;;23.18;49.36;100836.72;2392401;28;48418;-91
2022/06/25 01:52:28;;;;;;;;;2.00;2.00;;;;;23.13;49.69;100845.16;2384801;28;45295;-92
2022/06/25 01:53:38;;;;;;;;;3.75;3.25;;;;;23.11;50.52;100833.69;2383281;28;48079;-92
2022/06/25 01:54:49;;;;;;;;;2.25;2.25;;;;;23.11;49.62;100841.75;2376600;28;45273;-91
2022/06/25 01:55:59;;;;;;;;;1.25;1.25;;;;;23.12;49.81;100837.22;2385642;28;47946;-91
2022/06/25 01:57:10;;;;;;;;;1.50;1.25;;;;;23.11;49.93;100835.56;2385963;28;45552;-89
2022/06/25 01:58:20;;;;;;;;;1.50;1.50;;;;;23.10;49.61;100834.69;2383217;28;47241;-88
2022/06/25 01:59:31;;;;;;;;;3.50;2.00;;;;;23.10;50.05;100836.53;2383984;28;45417;-90
2022/06/25 02:00:42;;;;;;;;;2.25;2.00;;;;;23.06;50.49;100837.78;2389122;28;46887;-91
2022/06/25 02:01:52;;;;;;;;;2.25;2.00;;;;;23.04;50.28;100840.56;2384979;28;45462;-89
2022/06/25 02:03:03;;;;;;;;;4.00;2.00;;;;;23.03;50.14;100844.25;2384439;28;46411;-86
2022/06/25 02:04:13;;;;;;;;;1.00;1.00;;;;;23.04;49.89;100835.19;2393996;28;45501;-85
2022/06/25 02:06:54;;;;;;;;;2.00;2.00;;;;;23.06;50.13;100844.00;2385500;28;45184;-85
2022/06/25 02:08:07;;;;;;;;;2.00;2.00;;;;;23.04;50.54;100848.59;2385446;28;46310;-84
2022/06/25 02:09:17;;;;;;;;;3.50;2.00;;;;;23.05;50.33;100853.00;2381949;28;46788;-85
2022/06/25 02:10:28;;;;;;;;;2.00;2.00;;;;;23.04;50.08;100851.28;2376009;28;46315;-85
2022/06/25 02:11:38;;;;;;;;;2.00;1.75;;;;;23.04;49.90;100844.09;2384599;28;44743;-91
2022/06/25 02:12:49;;;;;;;;;1.25;1.25;;;;;23.06;50.33;100849.34;2384627;28;46780;-89
2022/06/25 02:13:59;;;;;;;;;3.00;1.75;;;;;23.09;50.44;100843.69;2393939;28;45365;-89
2022/06/25 02:15:09;;;;;;;;;5.75;2.00;;;;;23.12;50.71;100856.00;2384738;28;47077;-94
2022/06/25 02:16:20;;;;;;;;;1.25;1.25;;;;;23.12;49.98;100848.81;2396663;28;45264;-93
2022/06/25 02:17:30;;;;;;;;;1.75;1.75;;;;;23.12;50.24;100843.44;2395018;28;47228;-90
2022/06/25 02:18:40;;;;;;;;;2.00;2.00;;;;;23.12;50.54;100850.63;2387019;28;45236;-93
2022/06/25 02:19:51;;;;;;;;;2.75;1.25;;;;;23.13;50.48;100847.84;2386652;28;46646;-91
2022/06/25 02:21:01;;;;;;;;;2.75;2.00;;;;;23.12;50.50;100845.28;2386268;28;45238;-90
2022/06/25 02:22:14;;;;;;;;;2.75;1.75;;;;;23.10;51.04;100845.41;2387404;28;45377;-86
2022/06/25 02:23:25;;;;;;;;;2.00;2.00;;;;;23.09;50.38;100850.91;2393957;28;45237;-83
2022/06/25 02:24:35;;;;;;;;;2.50;1.00;;;;;23.08;50.09;100851.88;2390855;28;46999;-86
2022/06/25 02:25:46;;;;;;;;;1.75;1.75;;;;;23.09;50.44;100848.25;2389069;28;45177;-91
2022/06/25 02:26:56;;;;;;;;;1.75;1.75;;;;;23.10;50.21;100840.06;2393321;28;46966;-90
2022/06/25 02:28:06;;;;;;;;;1.75;1.75;;;;;23.12;50.43;100848.81;2378032;28;44572;-91
2022/06/25 02:29:17;;;;;;;;;1.25;1.25;;;;;23.13;50.83;100837.13;2384893;28;45323;-92
2022/06/25 02:30:27;;;;;;;;;2.00;2.00;;;;;23.15;49.95;100835.16;2394111;28;45209;-90
2022/06/25 02:31:37;;;;;;;;;3.00;1.00;;;;;23.13;50.56;100833.59;2391085;28;48456;-92
2022/06/25 02:32:48;;;;;;;;;2.75;2.00;;;;;23.13;50.76;100834.44;2380179;28;44795;-91
2022/06/25 02:33:58;;;;;;;;;1.00;1.00;;;;;23.12;50.64;100832.72;2390819;28;45225;-86
2022/06/25 02:35:09;;;;;;;;;2.00;2.00;;;;;23.12;50.51;100831.88;2385339;28;45231;-84
2022/06/25 02:36:19;;;;;;;;;1.00;1.00;;;;;23.11;50.78;100827.50;2384953;28;45267;-84
2022/06/25 02:37:30;;;;;;;;;1.25;1.00;;;;;23.12;50.84;100830.06;2385142;28;45376;-84
2022/06/25 02:38:40;;;;;;;;;1.00;1.00;;;;;23.13;50.01;100825.53;2385071;28;46373;-85
2022/06/25 02:39:50;;;;;;;;;1.00;1.00;;;;;23.12;50.94;100826.50;2385169;28;45384;-85
2022/06/25 02:41:01;;;;;;;;;1.00;1.00;;;;;23.10;50.59;100823.97;2385029;28;46243;-90
2022/06/25 02:42:11;;;;;;;;;2.00;1.50;;;;;23.09;50.60;100832.16;2384806;28;45433;-91
2022/06/25 02:43:21;;;;;;;;;1.25;1.25;;;;;23.07;50.74;100832.25;2385176;28;46424;-92
2022/06/25 02:44:32;;;;;;;;;1.25;1.00;;;;;23.01;50.74;100833.66;2384481;28;44705;-85
2022/06/25 02:45:42;;;;;;;;;1.25;1.25;;;;;22.98;50.73;100825.03;2381903;28;45409;-86
2022/06/25 02:46:52;;;;;;;;;1.00;1.00;;;;;22.95;50.65;100838.66;2384534;28;45410;-86
2022/06/25 02:48:03;;;;;;;;;1.50;1.00;;;;;22.93;51.00;100839.66;2390835;28;45281;-86
2022/06/25 02:49:13;;;;;;;;;1.00;1.00;;;;;22.95;51.60;100844.03;2393064;28;45469;-87
2022/06/25 02:50:24;;;;;;;;;1.50;1.50;;;;;22.89;51.13;100840.88;2391266;28;46316;-88
2022/06/25 02:51:35;;;;;;;;;1.25;1.25;;;;;22.89;51.11;100848.09;2393825;28;45319;-89
2022/06/25 02:52:45;;;;;;;;;1.00;1.00;;;;;22.88;50.90;100849.91;2390484;28;45288;-88
2022/06/25 02:53:56;;;;;;;;;1.00;1.00;;;;;22.87;50.69;100845.53;2385156;28;44592;-87
2022/06/25 02:55:06;;;;;;;;;1.00;1.00;;;;;22.89;51.16;100846.25;2384705;28;45297;-87
2022/06/25 02:59:16;;;;;;;;;1.25;1.00;;;;;22.93;51.56;100849.53;2384460;28;44707;-85
2022/06/25 03:00:27;;;;;;;;;3.75;2.75;;;;;22.90;51.19;100852.47;2384943;28;46239;-85
2022/06/25 03:01:37;;;;;;;;;1.00;0.00;;;;;22.92;51.30;100853.19;2385211;28;44636;-84
2022/06/25 03:02:48;;;;;;;;;2.00;1.00;;;;;22.94;51.17;100843.16;2383892;28;45314;-84
2022/06/25 03:03:58;;;;;;;;;1.50;1.00;;;;;22.97;51.01;100855.47;2385002;28;45218;-84
2022/06/25 03:05:09;;;;;;;;;3.75;1.00;;;;;22.96;51.27;100851.97;2384934;28;45299;-86
2022/06/25 03:06:20;;;;;;;;;1.00;1.00;;;;;22.95;50.66;100852.94;2384224;28;44816;-86
2022/06/25 03:07:30;;;;;;;;;3.00;2.00;;;;;22.95;51.01;100858.28;2383719;28;45392;-87
2022/06/25 03:08:40;;;;;;;;;1.00;1.00;;;;;22.95;50.90;100855.59;2384950;28;45420;-88
2022/06/25 03:09:51;;;;;;;;;1.00;1.00;;;;;22.91;51.10;100863.06;2384109;28;45366;-88
2022/06/25 03:11:01;;;;;;;;;2.50;1.00;;;;;22.85;51.00;100858.22;2392883;28;45310;-88
2022/06/25 03:12:12;;;;;;;;;2.25;1.25;;;;;22.80;51.44;100866.63;2391082;28;45335;-88
2022/06/25 03:13:22;;;;;;;;;1.25;1.00;;;;;22.74;51.75;100866.31;2393504;28;45236;-89
2022/06/25 03:14:33;;;;;;;;;2.00;1.75;;;;;22.65;52.07;100866.06;2390960;28;46094;-87
2022/06/25 03:15:43;;;;;;;;;1.00;1.00;;;;;22.60;51.87;100865.56;2393968;28;45344;-95
2022/06/25 03:16:53;;;;;;;;;4.00;2.00;;;;;22.56;52.59;100867.69;2384383;28;48590;-94
2022/06/25 03:18:04;;;;;;;;;1.00;1.00;;;;;22.51;52.47;100875.22;2386817;28;45323;-91
2022/06/25 03:19:14;;;;;;;;;1.00;1.00;;;;;22.47;52.93;100871.13;2390692;28;45211;-91
2022/06/25 03:20:25;;;;;;;;;1.00;1.00;;;;;22.45;53.05;100884.63;2384334;28;45152;-83
2022/06/25 03:21:36;;;;;;;;;1.00;1.00;;;;;22.42;52.96;100876.81;2387645;28;45223;-86
2022/06/25 03:22:46;;;;;;;;;2.75;1.00;;;;;22.39;53.61;100877.09;2393408;28;45196;-86
2022/06/25 03:23:56;;;;;;;;;0.75;0.75;;;;;22.34;53.59;100872.13;2390850;28;48243;-82
2022/06/25 03:25:07;;;;;;;;;3.00;0.00;;;;;22.25;53.10;100873.69;2384227;28;45291;-84
2022/06/25 03:26:17;;;;;;;;;1.50;0.00;;;;;22.20;53.63;100881.25;2384592;28;45421;-85
2022/06/25 03:27:28;;;;;;;;;0.00;0.00;;;;;22.11;53.97;100876.66;2380181;28;45248;-85
2022/06/25 03:28:38;;;;;;;;;0.00;0.00;;;;;22.04;54.44;100881.66;2377939;28;45296;-85
2022/06/25 03:29:48;;;;;;;;;0.00;0.00;;;;;21.96;54.21;100881.41;2383461;28;45444;-85
2022/06/25 03:30:59;;;;;;;;;0.25;0.00;;;;;21.86;54.02;100882.13;2384746;28;46239;-83
2022/06/25 03:32:09;;;;;;;;;0.25;0.00;;;;;21.79;54.48;100879.06;2384727;28;45204;-86
2022/06/25 03:33:20;;;;;;;;;0.00;0.00;;;;;21.74;54.99;100877.72;2388557;28;46552;-86
2022/06/25 03:34:30;;;;;;;;;0.00;0.00;;;;;21.73;54.13;100876.03;2391109;28;45256;-85
2022/06/25 03:35:41;;;;;;;;;0.00;0.00;;;;;21.75;54.96;100877.63;2393417;28;47823;-85
2022/06/25 03:36:51;;;;;;;;;0.00;0.00;;;;;21.74;54.86;100875.91;2390273;28;45312;-85
2022/06/25 03:38:01;;;;;;;;;0.00;0.00;;;;;21.73;54.83;100873.34;2393306;28;46978;-86
2022/06/25 03:39:12;;;;;;;;;0.50;0.50;;;;;21.75;55.01;100882.13;2391073;28;45342;-86
2022/06/25 03:40:22;;;;;;;;;0.00;0.00;;;;;21.75;55.63;100874.94;2384499;28;45385;-84
2022/06/25 03:41:33;;;;;;;;;0.00;0.00;;;;;21.76;55.44;100881.13;2393329;28;45245;-84
2022/06/25 03:42:43;;;;;;;;;1.00;1.00;;;;;21.78;54.53;100880.03;2390825;28;46392;-84
2022/06/25 03:43:54;;;;;;;;;0.50;0.00;;;;;21.81;55.46;100887.81;2383985;28;45474;-85
2022/06/25 03:45:04;;;;;;;;;0.00;0.00;;;;;21.79;55.01;100895.13;2384080;28;46414;-86
2022/06/25 03:46:15;;;;;;;;;0.00;0.00;;;;;21.79;55.79;100900.47;2384688;28;45219;-86
2022/06/25 03:47:26;;;;;;;;;1.25;0.00;;;;;21.77;55.11;100890.84;2382962;28;46302;-86
2022/06/25 03:48:36;;;;;;;;;0.00;0.00;;;;;21.76;55.30;100895.34;2379188;28;45172;-86
2022/06/25 03:49:47;;;;;;;;;0.00;0.00;;;;;21.74;55.46;100891.94;2383949;28;46539;-86
2022/06/25 03:50:58;;;;;;;;;0.00;0.00;;;;;21.72;55.74;100893.91;2384786;28;45186;-86
2022/06/25 03:52:08;;;;;;;;;0.25;0.25;;;;;21.69;55.61;100886.97;2384575;28;46429;-83
2022/06/25 03:53:19;;;;;;;;;2.00;1.00;;;;;21.71;56.19;100897.53;2384602;28;45247;-83
2022/06/25 03:54:29;;;;;;;;;0.00;0.00;;;;;21.72;55.55;100893.03;2384684;28;45262;-83
2022/06/25 03:55:39;;;;;;;;;1.00;0.25;;;;;21.72;55.73;100885.03;2383809;28;44811;-83
2022/06/25 03:56:50;;;;;;;;;1.50;1.00;;;;;21.76;56.13;100898.03;2384476;28;45279;-83
2022/06/25 03:58:01;;;;;;;;;1.00;1.00;;;;;21.76;55.82;100891.81;2384636;28;45302;-83
2022/06/25 03:59:11;;;;;;;;;0.25;0.25;;;;;21.78;56.00;100892.56;2384524;28;45273;-83
2022/06/25 04:00:21;;;;;;;;;0.75;0.75;;;;;21.79;55.59;100894.25;2384572;28;45530;-83
2022/06/25 04:01:32;;;;;;;;;0.00;0.00;;;;;21.80;56.36;100890.63;2384452;28;45341;-84
2022/06/25 04:02:42;;;;;;;;;1.00;1.00;;;;;21.83;55.85;100894.88;2384360;28;45240;-84
2022/06/25 04:03:52;;;;;;;;;1.00;1.00;;;;;21.83;56.08;100895.72;2383581;28;46012;-83
2022/06/25 04:05:04;;;;;;;;;1.00;1.00;;;;;21.85;55.63;100892.94;2383719;28;45439;-84
2022/06/25 04:06:14;;;;;;;;;1.00;1.00;;;;;21.87;55.81;100897.22;2384626;28;46446;-83
2022/06/25 04:07:25;;;;;;;;;0.00;0.00;;;;;21.89;55.51;100894.41;2383741;28;45227;-84
2022/06/25 04:08:35;;;;;;;;;0.50;0.50;;;;;21.90;55.06;100898.81;2384426;28;46260;-83
2022/06/25 04:09:46;;;;;;;;;0.75;0.75;;;;;21.92;55.11;100895.03;2384455;28;45283;-83
2022/06/25 04:10:56;;;;;;;;;2.00;0.75;;;;;21.97;54.94;100896.50;2384375;28;45290;-83
2022/06/25 04:12:07;;;;;;;;;2.00;1.00;;;;;22.02;55.36;100899.66;2384529;28;45219;-84
2022/06/25 04:13:17;;;;;;;;;1.00;1.00;;;;;22.08;54.64;100895.63;2392940;28;46994;-84
2022/06/25 04:14:28;;;;;;;;;1.00;0.25;;;;;22.12;54.83;100889.91;2390885;28;45176;-87
2022/06/25 04:15:39;;;;;;;;;1.00;1.00;;;;;22.17;55.29;100886.88;2391734;28;47034;-88
2022/06/25 04:16:50;;;;;;;;;1.00;1.00;;;;;22.22;55.13;100899.88;2390633;28;45462;-88
2022/06/25 04:18:00;;;;;;;;;1.00;1.00;;;;;22.22;55.03;100895.38;2384181;28;46484;-89
2022/06/25 04:19:10;;;;;;;;;1.00;1.00;;;;;22.26;54.44;100896.84;2392106;28;44716;-91
2022/06/25 04:20:21;;;;;;;;;1.00;1.00;;;;;22.29;54.63;100884.16;2390677;28;45345;-91
2022/06/25 04:21:32;;;;;;;;;0.25;0.25;;;;;22.30;54.35;100885.88;2384667;28;45219;-91
2022/06/25 04:22:42;;;;;;;;;0.00;0.00;;;;;22.34;54.54;100884.66;2391695;28;47957;-88
2022/06/25 04:23:52;;;;;;;;;1.00;1.00;;;;;22.37;54.73;100892.44;2390642;28;44620;-88
2022/06/25 04:25:04;;;;;;;;;2.00;1.00;;;;;22.39;54.72;100887.81;2391367;28;46893;-86
2022/06/25 04:26:14;;;;;;;;;1.00;1.00;;;;;22.39;54.22;100895.84;2390468;28;45488;-86
2022/06/25 04:29:08;;;;;;;;;1.00;1.00;;;;;22.43;54.32;100902.63;2388330;28;45441;-85
2022/06/25 04:30:18;;;;;;;;;0.00;0.00;;;;;22.43;54.24;100894.59;2383628;28;45435;-86
2022/06/25 04:31:30;;;;;;;;;1.00;1.00;;;;;22.42;54.38;100900.09;2375276;28;44564;-86
2022/06/25 04:32:40;;;;;;;;;3.00;1.75;;;;;22.41;54.59;100899.25;2380601;28;45473;-86
2022/06/25 04:33:51;;;;;;;;;0.00;0.00;;;;;22.37;54.35;100903.16;2390089;28;44823;-86
2022/06/25 04:35:01;;;;;;;;;1.00;1.00;;;;;22.32;53.99;100911.53;2392831;28;47549;-85
2022/06/25 04:36:12;;;;;;;;;0.00;0.00;;;;;22.32;53.95;100905.34;2390535;28;45693;-88
2022/06/25 04:37:22;;;;;;;;;1.00;0.50;;;;;22.32;54.33;100911.53;2384224;28;46005;-89
2022/06/25 04:38:33;;;;;;;;;1.00;1.00;;;;;22.32;54.36;100913.38;2384508;28;45416;-87
2022/06/25 04:39:43;;;;;;;;;1.25;1.25;;;;;22.33;55.11;100913.25;2384182;28;46175;-86
2022/06/25 04:40:53;;;;;;;;;0.00;0.00;;;;;22.31;54.63;100919.69;2383689;28;45271;-87
2022/06/25 04:42:04;;;;;;;;;0.50;0.50;;;;;22.30;54.75;100913.47;2384125;28;45443;-86
2022/06/25 04:43:14;;;;;;;;;2.00;1.00;;;;;22.30;54.23;100913.47;2383607;28;45386;-84
2022/06/25 04:44:25;;;;;;;;;0.75;0.75;;;;;22.29;54.45;100906.44;2383638;28;45286;-85
2022/06/25 04:45:35;;;;;;;;;1.00;1.00;;;;;22.30;54.16;100908.13;2383705;28;45260;-85
2022/06/25 04:46:45;;;;;;;;;1.00;1.00;;;;;22.29;54.71;100909.13;2383546;28;45335;-85
2022/06/25 04:48:00;;;;;;;;;1.00;1.00;;;;;22.31;54.53;100911.66;2384074;28;45292;-84
2022/06/25 04:49:11;;;;;;;;;3.00;0.25;;;;;22.33;54.17;100907.03;2384229;28;46163;-84
2022/06/25 04:50:21;;;;;;;;;1.75;0.00;;;;;22.34;54.91;100914.97;2383149;28;45226;-84
2022/06/25 04:51:31;;;;;;;;;1.75;1.00;;;;;22.35;54.54;100908.59;2374924;28;46522;-84
2022/06/25 04:52:42;;;;;;;;;1.00;1.00;;;;;22.36;54.31;100904.13;2381689;28;44751;-84
2022/06/25 04:53:56;;;;;;;;;2.25;1.00;;;;;22.35;54.70;100905.06;2380750;28;46105;-84
2022/06/25 04:55:06;;;;;;;;;2.00;0.50;;;;;22.34;53.93;100903.38;2375020;28;45168;-87
2022/06/25 04:56:17;;;;;;;;;0.50;0.50;;;;;22.33;54.04;100912.38;2392638;28;47111;-89
2022/06/25 04:57:27;;;;;;;;;0.00;0.00;;;;;22.36;53.89;100901.44;2383465;28;45346;-88
2022/06/25 04:58:37;;;;;;;;;1.00;1.00;;;;;22.39;54.31;100905.69;2376678;28;47283;-87
2022/06/25 04:59:47;;;;;;;;;1.00;1.00;;;;;22.44;53.72;100914.19;2376821;28;45293;-88
2022/06/25 05:00:59;;;;;;;;;0.00;0.00;;;;;22.45;53.64;100923.91;2382794;28;46305;-89
2022/06/25 05:02:10;;;;;;;;;1.00;1.00;;;;;22.43;53.68;100917.84;2390113;28;45362;-88
2022/06/25 05:03:20;;;;;;;;;1.00;1.00;;;;;22.43;54.16;100923.19;2392182;28;47079;-87
2022/06/25 05:04:30;;;;;;;;;1.00;1.00;;;;;22.44;54.16;100914.19;2390458;28;45224;-89
2022/06/25 05:05:41;;;;;;;;;0.00;0.00;;;;;22.44;53.51;100925.78;2377530;28;45381;-86
2022/06/25 05:06:51;;;;;;;;;1.00;1.00;;;;;22.48;53.64;100919.19;2378010;28;45171;-86
2022/06/25 05:08:01;;;;;;;;;1.00;1.00;;;;;22.53;53.85;100923.31;2392582;28;46924;-86
2022/06/25 05:09:12;;;;;;;;;1.00;0.00;;;;;22.51;54.59;100927.94;2390378;28;45325;-84
2022/06/25 05:10:22;;;;;;;;;1.00;1.00;;;;;22.50;54.11;100924.41;2382994;28;46374;-84
2022/06/25 05:11:33;;;;;;;;;0.25;0.25;;;;;22.51;54.39;100926.13;2375014;28;44731;-83
2022/06/25 05:14:12;;;;;;;;;1.00;1.00;;;;;22.57;53.88;100938.16;2384136;28;45527;-84
2022/06/25 05:15:22;;;;;;;;;1.00;0.00;;;;;22.61;53.33;100939.59;2383953;28;46538;-85
2022/06/25 05:16:33;;;;;;;;;1.00;0.00;;;;;22.67;53.67;100943.59;2382815;28;44905;-85
2022/06/25 05:17:43;;;;;;;;;2.00;1.00;;;;;22.69;53.59;100937.16;2383298;28;45402;-85
2022/06/25 05:18:53;;;;;;;;;0.75;0.75;;;;;22.75;53.32;100940.31;2392693;28;45299;-85
2022/06/25 05:20:04;;;;;;;;;1.00;1.00;;;;;22.79;52.83;100939.13;2389089;28;45363;-85
2022/06/25 05:21:15;;;;;;;;;1.00;1.00;;;;;22.85;53.32;100943.94;2381060;28;45198;-85
2022/06/25 05:22:25;;;;;;;;;2.00;1.00;;;;;22.88;53.30;100943.72;2383809;28;46540;-85
2022/06/25 05:23:35;;;;;;;;;2.00;1.00;;;;;22.86;53.19;100948.34;2381900;28;45310;-86
2022/06/25 05:24:46;;;;;;;;;0.00;0.00;;;;;22.84;52.90;100939.56;2383363;28;45288;-85
2022/06/25 05:25:57;;;;;;;;;1.00;0.25;;;;;22.81;52.76;100939.84;2383984;28;45277;-85
2022/06/25 05:27:07;;;;;;;;;1.00;1.00;;;;;22.79;53.04;100944.47;2383885;28;45454;-86
2022/06/25 05:28:17;;;;;;;;;0.75;0.00;;;;;22.77;53.11;100943.72;2384159;28;45234;-86
2022/06/25 05:29:27;;;;;;;;;1.00;1.00;;;;;22.77;52.91;100935.69;2384012;28;45174;-86
2022/06/25 05:30:38;;;;;;;;;0.75;0.75;;;;;22.78;53.32;100938.25;2391878;28;45192;-86
2022/06/25 05:31:49;;;;;;;;;0.50;0.50;;;;;22.76;52.85;100934.84;2389997;28;45374;-86
2022/06/25 05:32:59;;;;;;;;;0.25;0.25;;;;;22.79;53.15;100936.44;2384077;28;44757;-88
2022/06/25 05:34:10;;;;;;;;;0.25;0.25;;;;;22.79;53.11;100939.13;2391089;28;46145;-87
2022/06/25 05:35:20;;;;;;;;;1.25;1.00;;;;;22.80;53.01;100940.81;2390334;28;44691;-87
2022/06/25 05:36:30;;;;;;;;;1.50;1.00;;;;;22.77;53.78;100935.69;2394264;28;48144;-87
2022/06/25 05:37:41;;;;;;;;;0.00;0.00;;;;;22.76;53.56;100942.03;2391639;28;45328;-87
2022/06/25 05:38:51;;;;;;;;;0.75;0.75;;;;;22.75;53.32;100945.69;2391715;28;48299;-88